Time;durP1;ratioP1;P1;durP2;ratioP2;P2;SDS_P1;SDS_P2;PMS_P1;PMS_P2;Temp;Humidity;BMP_temperature;BMP_pressure;BME280_temperature;BME280_humidity;BME280_pressure;Samples;Min_cycle;Max_cycle;Signal;HPM_P1;HPM_P2
2022/05/21 00:02:04;;;;;;;12.57;4.67;;;18.30;99.90;;;;;;5122605;28;20639;-81
2022/05/21 00:04:30;;;;;;;7.03;4.13;;;18.30;99.90;;;;;;5124020;28;20196;-80
2022/05/21 00:06:57;;;;;;;6.53;4.60;;;18.30;99.90;;;;;;5125502;28;20177;-81
2022/05/21 00:09:24;;;;;;;12.47;4.70;;;18.30;99.90;;;;;;5124209;28;20184;-81
2022/05/21 00:11:50;;;;;;;10.57;4.10;;;18.20;99.90;;;;;;5123999;28;20177;-81
2022/05/21 00:14:15;;;;;;;12.50;4.90;;;18.10;99.90;;;;;;5124309;28;20243;-81
2022/05/21 00:16:41;;;;;;;11.43;4.93;;;18.00;99.90;;;;;;5124148;28;20181;-81
2022/05/21 00:19:07;;;;;;;9.93;4.77;;;18.00;99.90;;;;;;5128277;28;20710;-82
2022/05/21 00:21:32;;;;;;;7.57;4.93;;;18.00;99.90;;;;;;5128271;28;20645;-81
2022/05/21 00:23:58;;;;;;;6.50;4.83;;;17.90;99.90;;;;;;5125069;28;20542;-80
2022/05/21 00:26:25;;;;;;;7.60;4.70;;;17.80;99.90;;;;;;5127160;28;20247;-82
2022/05/21 00:28:51;;;;;;;7.93;4.30;;;17.80;99.90;;;;;;5127407;28;20173;-81
2022/05/21 00:31:18;;;;;;;5.50;4.53;;;17.60;99.90;;;;;;5125767;28;20200;-81
2022/05/21 00:33:45;;;;;;;7.47;5.13;;;17.50;99.90;;;;;;5126044;28;20168;-81
2022/05/21 00:36:12;;;;;;;7.07;4.33;;;17.50;99.90;;;;;;5126694;28;20201;-81
2022/05/21 00:38:39;;;;;;;5.70;4.33;;;17.40;99.90;;;;;;5127996;28;20168;-82
2022/05/21 00:41:06;;;;;;;10.00;4.83;;;17.40;99.90;;;;;;5127508;28;20172;-82
2022/05/21 00:43:52;;;;;;;6.73;3.80;;;17.40;99.90;;;;;;5126805;28;20173;-81
2022/05/21 00:46:23;;;;;;;6.53;4.40;;;17.30;99.90;;;;;;5129375;28;20235;-81
2022/05/21 00:49:21;;;;;;;5.37;4.43;;;17.20;99.90;;;;;;5127297;28;20179;-82
2022/05/21 00:52:00;;;;;;;5.20;4.50;;;17.20;99.90;;;;;;5127500;28;20198;-82
2022/05/21 00:54:32;;;;;;;6.43;4.23;;;17.20;99.90;;;;;;5127776;28;20204;-82
2022/05/21 00:57:13;;;;;;;6.23;4.73;;;17.30;99.90;;;;;;5127946;28;20178;-81
2022/05/21 00:59:47;;;;;;;11.10;5.40;;;17.10;99.90;;;;;;5126560;28;20170;-80
2022/05/21 01:02:23;;;;;;;11.20;6.07;;;17.00;99.90;;;;;;5123711;28;20169;-80
2022/05/21 01:04:49;;;;;;;8.40;5.53;;;16.90;99.90;;;;;;5124537;28;20658;-80
2022/05/21 01:07:15;;;;;;;8.57;5.23;;;16.80;99.90;;;;;;5123147;28;20175;-80
2022/05/21 01:09:48;;;;;;;8.27;5.60;;;16.70;99.90;;;;;;5124988;28;20225;-81
2022/05/21 01:12:13;;;;;;;10.77;5.40;;;16.60;99.90;;;;;;5126968;28;20168;-81
2022/05/21 01:14:39;;;;;;;14.37;5.83;;;16.50;99.90;;;;;;5125352;28;20214;-81
2022/05/21 01:17:05;;;;;;;6.27;4.97;;;16.40;99.90;;;;;;5125498;28;20190;-81
2022/05/21 01:19:31;;;;;;;8.33;5.57;;;;;;;;;;5125261;28;20175;-81
2022/05/21 01:21:58;;;;;;;7.97;5.67;;;16.50;99.90;;;;;;5126410;28;20239;-81
2022/05/21 01:24:24;;;;;;;8.33;5.97;;;16.50;99.90;;;;;;5126722;28;20603;-81
2022/05/21 01:26:50;;;;;;;8.53;5.40;;;16.50;99.90;;;;;;5129373;28;20177;-81
2022/05/21 01:29:22;;;;;;;9.37;5.60;;;16.50;99.90;;;;;;5136992;28;20176;-80
2022/05/21 01:31:53;;;;;;;7.33;5.33;;;16.50;99.90;;;;;;5128906;28;20634;-81
2022/05/21 01:34:20;;;;;;;8.47;5.30;;;16.50;99.90;;;;;;5122543;28;20208;-81
2022/05/21 01:36:46;;;;;;;9.30;6.07;;;16.50;99.90;;;;;;5122335;28;20167;-80
2022/05/21 01:39:12;;;;;;;10.10;5.10;;;16.50;99.90;;;;;;5122942;28;20527;-80
2022/05/21 01:41:42;;;;;;;8.90;4.80;;;16.50;99.90;;;;;;5120147;28;20178;-80
2022/05/21 01:46:52;;;;;;;7.17;5.13;;;16.30;99.90;;;;;;5121041;28;20209;-81
2022/05/21 01:49:18;;;;;;;8.43;5.10;;;16.30;99.90;;;;;;5120005;28;20165;-80
2022/05/21 01:51:44;;;;;;;7.73;5.17;;;16.30;99.90;;;;;;5119801;28;20175;-80
2022/05/21 01:54:10;;;;;;;10.67;4.80;;;16.20;99.90;;;;;;5120971;28;20191;-80
2022/05/21 01:56:35;;;;;;;8.57;5.37;;;16.20;99.90;;;;;;5120045;28;20207;-81
2022/05/21 01:59:01;;;;;;;6.37;4.60;;;16.20;99.90;;;;;;5120659;28;20188;-80
2022/05/21 02:01:27;;;;;;;5.90;4.63;;;16.20;99.90;;;;;;5120624;28;20167;-80
2022/05/21 02:03:53;;;;;;;7.13;5.17;;;16.20;99.90;;;;;;5120477;28;20818;-80
2022/05/21 02:06:18;;;;;;;5.93;4.90;;;16.20;99.90;;;;;;5120973;28;20223;-80
2022/05/21 02:08:44;;;;;;;5.80;4.97;;;16.20;99.90;;;;;;5121333;28;20171;-81
2022/05/21 02:11:09;;;;;;;8.97;5.07;;;16.20;99.90;;;;;;5122399;28;20167;-80
2022/05/21 02:13:35;;;;;;;7.70;4.63;;;16.20;99.90;;;;;;5122317;28;20195;-80
2022/05/21 02:16:02;;;;;;;6.70;5.17;;;16.20;99.90;;;;;;5122906;28;20214;-81
2022/05/21 02:18:27;;;;;;;7.00;5.17;;;16.20;99.90;;;;;;5123859;28;20196;-80
2022/05/21 02:20:54;;;;;;;10.57;4.93;;;16.10;99.90;;;;;;5124069;28;20183;-81
2022/05/21 02:23:20;;;;;;;7.00;4.83;;;16.10;99.90;;;;;;5123659;28;20179;-80
2022/05/21 02:25:46;;;;;;;6.40;4.97;;;16.10;99.90;;;;;;5123792;28;20215;-80
2022/05/21 02:28:12;;;;;;;9.63;5.03;;;;;;;;;;5122944;28;20193;-80
2022/05/21 02:30:38;;;;;;;5.43;4.63;;;16.10;99.90;;;;;;5123867;28;20240;-80
2022/05/21 02:33:04;;;;;;;8.10;5.63;;;16.00;99.90;;;;;;5122140;28;20175;-80
2022/05/21 02:35:29;;;;;;;6.53;4.47;;;16.00;99.90;;;;;;5123762;28;20208;-81
2022/05/21 02:40:39;;;;;;;12.70;5.30;;;16.10;99.90;;;;;;5123296;28;20232;-80
2022/05/21 02:43:05;;;;;;;6.27;4.60;;;16.20;99.90;;;;;;5123381;28;20179;-80
2022/05/21 02:45:31;;;;;;;7.70;5.23;;;16.20;99.90;;;;;;5123764;28;20195;-80
2022/05/21 02:47:57;;;;;;;8.87;5.23;;;16.20;99.90;;;;;;5122352;27;20182;-80
2022/05/21 02:50:32;;;;;;;7.50;5.70;;;16.20;99.90;;;;;;5122365;28;20672;-80
2022/05/21 02:53:00;;;;;;;9.33;5.50;;;16.30;99.90;;;;;;5120727;28;20625;-79
2022/05/21 02:55:25;;;;;;;8.33;6.20;;;16.20;99.90;;;;;;5122415;28;20211;-80
2022/05/21 02:57:51;;;;;;;8.50;5.83;;;16.10;99.90;;;;;;5122595;28;20172;-80
2022/05/21 03:00:20;;;;;;;7.83;5.53;;;16.20;99.90;;;;;;5120549;28;20617;-80
2022/05/21 03:02:46;;;;;;;6.90;4.53;;;16.10;99.90;;;;;;5122630;28;20171;-80
2022/05/21 03:05:12;;;;;;;7.67;4.70;;;16.10;99.90;;;;;;5121578;28;20200;-80
2022/05/21 03:07:43;;;;;;;10.17;5.03;;;16.20;99.90;;;;;;5124801;28;20186;-80
2022/05/21 03:10:22;;;;;;;6.17;4.37;;;16.20;99.90;;;;;;5125436;28;20176;-80
2022/05/21 03:12:59;;;;;;;5.93;4.93;;;16.20;99.90;;;;;;5122807;28;20172;-80
2022/05/21 03:15:38;;;;;;;6.53;5.30;;;16.10;99.90;;;;;;5123674;28;20211;-80
2022/05/21 03:18:08;;;;;;;7.13;4.87;;;16.00;99.90;;;;;;5123942;28;20177;-80
2022/05/21 03:20:35;;;;;;;8.10;4.70;;;16.00;99.90;;;;;;5122415;28;20166;-80
2022/05/21 03:23:00;;;;;;;6.30;4.27;;;16.00;99.90;;;;;;5123362;28;20313;-80
2022/05/21 03:25:26;;;;;;;8.13;4.57;;;16.00;99.90;;;;;;5123432;28;20195;-80
2022/05/21 03:27:52;;;;;;;6.60;4.70;;;16.00;99.90;;;;;;5123295;28;20201;-80
2022/05/21 03:30:22;;;;;;;8.33;4.57;;;15.90;99.90;;;;;;5122654;28;20182;-80
2022/05/21 03:32:48;;;;;;;6.80;4.23;;;15.80;99.90;;;;;;5121457;28;20172;-80
2022/05/21 03:35:16;;;;;;;10.50;4.37;;;15.70;99.90;;;;;;5123527;28;20233;-80
2022/05/21 03:37:42;;;;;;;5.40;4.40;;;15.70;99.90;;;;;;5122599;28;20202;-80
2022/05/21 03:40:11;;;;;;;6.33;4.30;;;15.70;99.90;;;;;;5122136;28;20183;-80
2022/05/21 03:42:38;;;;;;;4.93;3.77;;;15.60;99.90;;;;;;5122160;28;20203;-80
2022/05/21 03:45:04;;;;;;;5.73;4.07;;;15.60;99.90;;;;;;5122241;28;20202;-80
2022/05/21 03:47:30;;;;;;;7.87;4.20;;;15.50;99.90;;;;;;5120890;28;20213;-80
2022/05/21 03:49:56;;;;;;;5.10;3.80;;;15.50;99.90;;;;;;5121643;28;20236;-80
2022/05/21 03:52:22;;;;;;;5.87;3.87;;;15.60;99.90;;;;;;5124088;28;20630;-80
2022/05/21 03:54:48;;;;;;;6.90;3.93;;;15.60;99.90;;;;;;5126238;28;20700;-80
2022/05/21 03:57:15;;;;;;;5.77;3.60;;;15.50;99.90;;;;;;5124668;28;20203;-80
2022/05/21 03:59:41;;;;;;;3.97;3.13;;;15.50;99.90;;;;;;5125649;28;20172;-80
2022/05/21 04:02:07;;;;;;;4.23;3.43;;;15.40;99.90;;;;;;5125106;28;20179;-80
2022/05/21 04:04:32;;;;;;;5.10;3.63;;;15.40;99.90;;;;;;5123264;28;20204;-80
2022/05/21 04:06:58;;;;;;;5.43;3.53;;;15.40;99.90;;;;;;5123665;28;20232;-80
2022/05/21 04:09:27;;;;;;;4.57;3.60;;;15.40;99.90;;;;;;5124343;28;20201;-79
2022/05/21 04:11:55;;;;;;;4.60;2.80;;;15.40;99.90;;;;;;5124081;28;20195;-80
2022/05/21 04:14:21;;;;;;;4.47;3.70;;;15.40;99.90;;;;;;5123066;28;20211;-81
2022/05/21 04:16:47;;;;;;;5.33;3.67;;;15.40;99.90;;;;;;5125985;28;20170;-81
2022/05/21 04:19:12;;;;;;;6.40;3.57;;;15.40;99.90;;;;;;5124856;28;20171;-80
2022/05/21 04:21:38;;;;;;;7.43;3.93;;;15.40;99.90;;;;;;5125363;28;20164;-80
2022/05/21 04:24:04;;;;;;;8.57;3.97;;;15.50;99.90;;;;;;5123946;28;20176;-80
2022/05/21 04:26:30;;;;;;;6.17;3.97;;;15.50;99.90;;;;;;5125916;28;20540;-81
2022/05/21 04:28:56;;;;;;;6.73;3.63;;;15.50;99.90;;;;;;5124216;28;20171;-81
2022/05/21 04:31:21;;;;;;;5.20;3.50;;;15.50;99.90;;;;;;5124832;28;20164;-81
2022/05/21 04:33:47;;;;;;;4.27;3.50;;;15.50;99.90;;;;;;5126242;28;20197;-80
2022/05/21 04:36:18;;;;;;;5.37;3.27;;;15.50;99.90;;;;;;5125292;28;20207;-81
2022/05/21 04:38:49;;;;;;;5.63;3.50;;;15.60;99.90;;;;;;5124466;28;20168;-80
2022/05/21 04:41:15;;;;;;;4.67;3.43;;;15.60;99.90;;;;;;5128513;28;20178;-80
2022/05/21 04:43:41;;;;;;;3.97;3.23;;;15.60;99.90;;;;;;5127664;28;20220;-80
2022/05/21 04:46:08;;;;;;;4.50;3.40;;;15.50;99.90;;;;;;5125196;28;20195;-80
2022/05/21 04:48:34;;;;;;;4.10;3.30;;;15.50;99.90;;;;;;5125104;27;20176;-80
2022/05/21 04:51:02;;;;;;;4.50;3.30;;;15.50;99.90;;;;;;5125247;28;20171;-81
2022/05/21 04:53:28;;;;;;;4.93;3.17;;;15.60;99.90;;;;;;5124585;28;20542;-80
2022/05/21 04:55:54;;;;;;;4.80;3.30;;;15.60;99.90;;;;;;5124017;28;20204;-80
2022/05/21 04:58:20;;;;;;;4.53;3.00;;;15.50;99.90;;;;;;5125430;28;20180;-80
2022/05/21 05:00:46;;;;;;;3.67;3.30;;;15.50;99.90;;;;;;5124415;28;20194;-80
2022/05/21 05:03:13;;;;;;;4.20;3.03;;;15.60;99.90;;;;;;5123179;28;20248;-82
2022/05/21 05:05:40;;;;;;;4.27;3.03;;;15.60;99.90;;;;;;5123210;28;20203;-81
2022/05/21 05:08:06;;;;;;;4.43;2.90;;;15.60;99.90;;;;;;5123152;28;20176;-81
2022/05/21 05:10:33;;;;;;;4.23;3.30;;;15.60;99.90;;;;;;5124818;28;20167;-81
2022/05/21 05:12:59;;;;;;;7.40;3.00;;;15.50;99.90;;;;;;5124259;28;20167;-80
2022/05/21 05:15:25;;;;;;;3.20;2.90;;;15.50;99.90;;;;;;5123234;28;20207;-80
2022/05/21 05:17:56;;;;;;;5.37;3.30;;;15.50;99.90;;;;;;5123017;28;20168;-80
2022/05/21 05:20:22;;;;;;;5.23;3.30;;;15.50;99.90;;;;;;5123582;28;20197;-80
2022/05/21 05:22:48;;;;;;;3.60;3.17;;;15.50;99.90;;;;;;5123010;28;20179;-81
2022/05/21 05:25:13;;;;;;;6.43;3.37;;;15.50;99.90;;;;;;5123314;28;20206;-80
2022/05/21 05:27:39;;;;;;;4.07;2.83;;;15.50;99.90;;;;;;5125484;28;20179;-80
2022/05/21 05:30:05;;;;;;;5.00;2.90;;;15.50;99.90;;;;;;5123839;28;20180;-81
2022/05/21 05:32:31;;;;;;;4.70;3.63;;;15.60;99.90;;;;;;5123124;28;20203;-81
2022/05/21 05:34:57;;;;;;;7.63;3.30;;;;;;;;;;5124946;28;20256;-80
2022/05/21 05:37:22;;;;;;;5.20;3.10;;;15.70;99.90;;;;;;5125519;28;20175;-81
2022/05/21 05:39:48;;;;;;;6.83;3.10;;;;;;;;;;5124195;28;20221;-80
2022/05/21 05:42:14;;;;;;;5.80;2.90;;;15.60;99.90;;;;;;5124527;28;20249;-81
2022/05/21 05:44:40;;;;;;;3.97;2.90;;;15.60;99.90;;;;;;5123745;28;20199;-81
2022/05/21 05:47:06;;;;;;;6.17;3.03;;;;;;;;;;5123416;28;20247;-81
2022/05/21 05:49:31;;;;;;;6.00;2.57;;;15.70;99.90;;;;;;5124327;28;20176;-81
2022/05/21 05:51:58;;;;;;;5.60;2.70;;;15.80;99.90;;;;;;5124642;28;20593;-81
2022/05/21 05:54:24;;;;;;;7.97;2.30;;;15.80;99.90;;;;;;5124394;28;20211;-81
2022/05/21 05:56:50;;;;;;;3.97;2.37;;;;;;;;;;5123441;28;20175;-81
2022/05/21 06:04:43;;;;;;;4.37;2.50;;;15.80;99.90;;;;;;5125110;28;20224;-81
2022/05/21 06:07:13;;;;;;;3.57;2.10;;;15.90;99.90;;;;;;5124360;28;20243;-81
2022/05/21 06:09:40;;;;;;;3.23;2.33;;;15.90;99.90;;;;;;5122785;28;20184;-81
2022/05/21 06:12:08;;;;;;;3.17;2.00;;;16.00;99.90;;;;;;5124790;28;20259;-80
2022/05/21 06:14:35;;;;;;;2.73;2.23;;;16.10;99.90;;;;;;5123994;28;20218;-80
2022/05/21 06:17:01;;;;;;;3.87;2.23;;;16.10;99.90;;;;;;5120137;28;20243;-80
2022/05/21 06:19:27;;;;;;;3.30;1.70;;;16.20;99.90;;;;;;5118814;28;20215;-80
2022/05/21 06:22:00;;;;;;;2.50;2.10;;;16.20;99.90;;;;;;5120522;28;20169;-80
2022/05/21 06:24:25;;;;;;;2.70;2.07;;;16.30;99.90;;;;;;5123385;28;20192;-80
2022/05/21 06:26:51;;;;;;;4.53;2.27;;;16.30;99.90;;;;;;5122795;28;20563;-80
2022/05/21 06:29:17;;;;;;;2.77;2.00;;;16.20;99.90;;;;;;5121587;28;20188;-79
2022/05/21 06:31:42;;;;;;;3.50;2.27;;;16.00;99.90;;;;;;5121272;28;20180;-80
2022/05/21 06:34:08;;;;;;;3.93;1.87;;;16.00;99.90;;;;;;5121076;28;20187;-80
2022/05/21 06:36:34;;;;;;;3.40;2.10;;;16.00;99.90;;;;;;5121174;28;20176;-79
2022/05/21 06:39:00;;;;;;;4.57;2.00;;;16.00;99.90;;;;;;5122901;28;20196;-79
2022/05/21 06:41:29;;;;;;;2.77;1.97;;;16.00;99.90;;;;;;5122278;28;20172;-81
2022/05/21 06:43:55;;;;;;;4.17;2.00;;;16.10;99.90;;;;;;5119901;28;20176;-80
2022/05/21 06:46:21;;;;;;;2.10;1.90;;;;;;;;;;5120303;28;20277;-79
2022/05/21 06:48:47;;;;;;;3.20;2.00;;;16.20;99.90;;;;;;5118521;28;20642;-78
2022/05/21 06:51:13;;;;;;;4.20;2.10;;;16.30;99.90;;;;;;5120570;28;20175;-76
2022/05/21 06:53:40;;;;;;;2.23;1.87;;;16.50;99.90;;;;;;5116422;28;20181;-80
2022/05/21 06:56:09;;;;;;;3.90;1.60;;;16.60;99.90;;;;;;5118748;28;20199;-79
2022/05/21 06:58:35;;;;;;;2.57;1.40;;;16.70;99.90;;;;;;5120090;28;20175;-78
2022/05/21 07:01:01;;;;;;;2.10;1.60;;;16.70;99.90;;;;;;5118160;28;20629;-78
2022/05/21 07:03:26;;;;;;;4.00;2.20;;;16.80;99.90;;;;;;5118482;28;20206;-78
2022/05/21 07:08:36;;;;;;;2.50;1.73;;;16.90;99.90;;;;;;5114826;28;20558;-77
2022/05/21 07:11:02;;;;;;;1.87;1.53;;;16.90;99.90;;;;;;5114084;28;20177;-77
2022/05/21 07:13:30;;;;;;;1.97;1.77;;;17.00;99.90;;;;;;5114118;28;20191;-77
2022/05/21 07:15:57;;;;;;;2.20;2.00;;;17.20;99.90;;;;;;5114206;28;20201;-77
2022/05/21 07:18:24;;;;;;;3.13;2.00;;;17.50;99.90;;;;;;5114499;28;20254;-77
2022/05/21 07:20:51;;;;;;;2.60;2.13;;;17.60;99.90;;;;;;5112728;28;20558;-78
2022/05/21 07:23:17;;;;;;;2.90;1.90;;;17.50;99.90;;;;;;5112873;28;20264;-77
2022/05/21 07:25:44;;;;;;;4.53;1.97;;;17.60;99.90;;;;;;5114210;28;20197;-77
2022/05/21 07:28:10;;;;;;;2.93;2.07;;;17.60;99.90;;;;;;5112705;28;20183;-77
2022/05/21 07:30:37;;;;;;;3.23;2.00;;;17.70;99.90;;;;;;5113931;28;20634;-77
2022/05/21 07:33:04;;;;;;;2.67;1.80;;;17.70;99.90;;;;;;5113990;28;20188;-77
2022/05/21 07:35:30;;;;;;;3.10;2.00;;;17.80;99.90;;;;;;5114137;28;20270;-76
2022/05/21 07:37:56;;;;;;;2.30;2.07;;;17.90;99.90;;;;;;5112819;28;20200;-77
2022/05/21 07:40:25;;;;;;;4.90;2.40;;;18.00;99.90;;;;;;5112492;28;20173;-78
2022/05/21 07:42:52;;;;;;;2.97;2.30;;;18.00;99.90;;;;;;5114326;28;20173;-77
2022/05/21 07:45:19;;;;;;;2.80;2.20;;;18.10;99.90;;;;;;5112675;28;20196;-77
2022/05/21 07:47:46;;;;;;;2.80;2.37;;;18.20;99.90;;;;;;5112716;28;20676;-77
2022/05/21 07:50:14;;;;;;;2.73;1.97;;;18.50;99.90;;;;;;5114019;28;20205;-77
2022/05/21 07:52:41;;;;;;;3.00;2.33;;;18.60;99.90;;;;;;5115108;28;20259;-78
2022/05/21 07:55:08;;;;;;;6.17;2.10;;;18.70;99.90;;;;;;5114792;28;20227;-78
2022/05/21 07:57:34;;;;;;;4.23;2.50;;;18.70;99.90;;;;;;5113739;28;20225;-78
2022/05/21 07:59:59;;;;;;;4.27;2.10;;;18.80;99.90;;;;;;5117039;28;20173;-78
2022/05/21 08:02:25;;;;;;;5.03;2.10;;;18.80;99.90;;;;;;5120057;28;20276;-78
2022/05/21 08:04:51;;;;;;;6.93;3.23;;;18.80;99.90;;;;;;5118444;28;20198;-79
2022/05/21 08:07:16;;;;;;;2.93;2.50;;;18.70;99.90;;;;;;5119156;28;20177;-78
2022/05/21 08:09:42;;;;;;;3.00;2.50;;;18.60;99.90;;;;;;5118763;28;20571;-78
2022/05/21 08:12:08;;;;;;;3.53;2.30;;;18.50;99.90;;;;;;5118603;28;20180;-78
2022/05/21 08:14:34;;;;;;;4.37;2.50;;;18.50;99.90;;;;;;5118019;28;20222;-78
2022/05/21 08:17:00;;;;;;;3.73;2.20;;;18.40;99.90;;;;;;5116527;28;20202;-78
2022/05/21 08:19:26;;;;;;;4.80;2.63;;;18.30;99.90;;;;;;5115193;28;20178;-78
2022/05/21 08:21:52;;;;;;;2.87;2.30;;;18.30;99.90;;;;;;5114493;28;20179;-77
2022/05/21 08:27:03;;;;;;;5.23;2.77;;;18.50;99.90;;;;;;5113790;28;20209;-79
2022/05/21 08:29:36;;;;;;;4.60;2.53;;;18.50;99.90;;;;;;5115699;28;20267;-80
2022/05/21 08:32:04;;;;;;;4.27;3.27;;;18.70;99.90;;;;;;5120491;28;20167;-80
2022/05/21 08:34:31;;;;;;;4.90;2.93;;;18.90;99.90;;;;;;5119035;28;20207;-80
2022/05/21 08:36:57;;;;;;;3.57;2.50;;;18.90;99.90;;;;;;5117898;28;20176;-81
2022/05/21 08:39:23;;;;;;;4.03;2.40;;;19.00;99.90;;;;;;5121476;28;20171;-81
2022/05/21 08:41:58;;;;;;;4.33;2.30;;;19.20;99.90;;;;;;5121934;28;20182;-81
2022/05/21 08:44:46;;;;;;;3.10;2.37;;;19.30;99.90;;;;;;5122960;28;20199;-80
2022/05/21 08:47:20;;;;;;;3.33;2.80;;;19.40;99.90;;;;;;5122175;28;20168;-80
2022/05/21 08:50:02;;;;;;;3.97;2.50;;;19.70;99.90;;;;;;5122147;28;20197;-81
2022/05/21 08:52:49;;;;;;;2.70;2.23;;;19.80;99.90;;;;;;5121916;28;20179;-81
2022/05/21 08:55:19;;;;;;;4.07;2.40;;;19.70;99.90;;;;;;5122683;28;20233;-80
2022/05/21 08:57:54;;;;;;;2.83;2.47;;;19.70;99.90;;;;;;5122945;28;20175;-80
2022/05/21 09:00:24;;;;;;;2.57;2.30;;;19.80;99.90;;;;;;5122318;28;20163;-81
2022/05/21 09:02:50;;;;;;;2.43;2.10;;;19.80;99.90;;;;;;5122935;28;20175;-80
2022/05/21 09:05:19;;;;;;;3.37;2.10;;;19.90;99.90;;;;;;5122188;28;20203;-81
2022/05/21 09:08:22;;;;;;;4.37;2.80;;;19.90;99.90;;;;;;5123546;27;20244;-78
2022/05/21 09:11:24;;;;;;;4.30;2.30;;;19.90;99.90;;;;;;5121825;28;20180;-78
2022/05/21 09:14:03;;;;;;;3.30;2.07;;;19.80;99.90;;;;;;5061849;28;20254;-78
2022/05/21 09:16:54;;;;;;;3.10;2.00;;;20.00;99.90;;;;;;5112236;28;20578;-78
2022/05/21 09:19:27;;;;;;;5.03;2.07;;;20.10;99.90;;;;;;5124158;28;20172;-77
2022/05/21 09:22:04;;;;;;;2.07;1.87;;;20.00;99.90;;;;;;5122742;28;20608;-78
2022/05/21 09:24:45;;;;;;;3.57;2.00;;;20.30;99.90;;;;;;5122266;28;20195;-79
2022/05/21 09:27:38;;;;;;;2.37;2.00;;;20.60;99.90;;;;;;5121347;28;20196;-77
2022/05/21 09:30:15;;;;;;;3.10;2.10;;;21.10;99.90;;;;;;5122275;28;20156;-78
2022/05/21 09:32:44;;;;;;;3.50;2.07;;;21.50;99.90;;;;;;5123044;27;20184;-78
2022/05/21 09:35:17;;;;;;;2.87;2.07;;;21.90;99.90;;;;;;5121791;28;20671;-78
2022/05/21 09:37:43;;;;;;;2.90;2.00;;;22.50;99.90;;;;;;5123807;27;20269;-78
2022/05/21 09:40:24;;;;;;;4.23;1.97;;;22.80;99.90;;;;;;5124008;28;20184;-78
2022/05/21 09:45:37;;;;;;;6.33;2.10;;;22.40;99.90;;;;;;5122906;28;20206;-78
2022/05/21 09:48:05;;;;;;;2.83;1.80;;;21.80;99.90;;;;;;5122048;28;20560;-78
2022/05/21 09:50:54;;;;;;;2.50;1.90;;;21.40;99.90;;;;;;5120334;28;20178;-78
2022/05/21 09:53:26;;;;;;;2.27;1.93;;;21.20;99.90;;;;;;5120703;28;20202;-78
2022/05/21 09:56:01;;;;;;;3.27;2.20;;;21.50;99.90;;;;;;5119738;28;20233;-78
2022/05/21 09:58:30;;;;;;;2.60;2.20;;;22.00;99.90;;;;;;5118430;28;20182;-77
2022/05/21 10:00:57;;;;;;;2.20;2.00;;;22.30;99.90;;;;;;5115216;28;20701;-77
2022/05/21 10:03:45;;;;;;;2.70;2.30;;;22.90;99.90;;;;;;5115963;28;20270;-77
2022/05/21 10:06:17;;;;;;;2.00;1.80;;;23.00;99.90;;;;;;5115042;28;20201;-77
2022/05/21 10:11:38;;;;;;;1.97;1.47;;;22.20;99.90;;;;;;5116047;28;20173;-78
2022/05/21 10:14:08;;;;;;;1.47;1.37;;;22.00;97.20;;;;;;5115666;28;20242;-77
2022/05/21 10:16:57;;;;;;;1.73;1.40;;;22.60;99.90;;;;;;5116223;27;20190;-77
2022/05/21 10:19:30;;;;;;;2.33;1.90;;;23.10;99.90;;;;;;5114125;28;20166;-77
2022/05/21 10:22:27;;;;;;;2.20;1.70;;;22.80;97.30;;;;;;5115980;28;20545;-77
2022/05/21 10:25:14;;;;;;;2.73;2.20;;;22.20;98.00;;;;;;5115682;28;20188;-77
2022/05/21 10:28:00;;;;;;;4.97;2.17;;;21.60;98.80;;;;;;5115966;28;20245;-78
2022/05/21 10:31:05;;;;;;;3.50;1.90;;;21.50;99.90;;;;;;5115723;28;20209;-77
2022/05/21 10:33:45;;;;;;;2.27;1.90;;;21.30;99.90;;;;;;5118303;28;20185;-80
2022/05/21 10:36:26;;;;;;;5.10;2.40;;;21.60;99.90;;;;;;5114321;28;20211;-76
2022/05/21 10:39:01;;;;;;;2.40;1.87;;;21.70;99.90;;;;;;5115169;28;20155;-77
2022/05/21 10:41:45;;;;;;;1.90;1.70;;;21.80;99.80;;;;;;5114784;28;20210;-77
2022/05/21 10:44:30;;;;;;;2.77;1.73;;;21.90;98.10;;;;;;5113491;28;20170;-77
2022/05/21 10:46:58;;;;;;;2.60;1.80;;;22.00;99.30;;;;;;5115044;28;20181;-78
2022/05/21 10:49:48;;;;;;;3.40;2.10;;;22.20;99.90;;;;;;5119452;28;20200;-80
2022/05/21 10:52:20;;;;;;;3.53;1.93;;;22.40;99.50;;;;;;5122978;28;20172;-81
2022/05/21 10:55:10;;;;;;;1.93;1.77;;;22.50;97.20;;;;;;5127036;28;20201;-80
2022/05/21 10:58:13;;;;;;;2.30;1.93;;;22.20;98.40;;;;;;5126460;28;20167;-78
2022/05/21 11:01:09;;;;;;;2.10;1.83;;;21.70;96.70;;;;;;5120016;28;20187;-80
2022/05/21 11:03:49;;;;;;;2.87;2.00;;;21.70;99.10;;;;;;5119290;28;20662;-79
2022/05/21 11:06:27;;;;;;;2.43;1.77;;;22.40;99.90;;;;;;5119164;28;20197;-81
2022/05/21 11:09:19;;;;;;;2.87;1.80;;;23.30;97.30;;;;;;5114707;28;20205;-77
2022/05/21 11:12:21;;;;;;;2.43;1.80;;;24.20;97.10;;;;;;5117524;28;20575;-77
2022/05/21 11:14:52;;;;;;;2.40;1.67;;;24.30;97.70;;;;;;5116330;28;20681;-77
2022/05/21 11:17:30;;;;;;;2.00;1.80;;;24.00;94.70;;;;;;5115670;28;20148;-81
2022/05/21 11:20:17;;;;;;;2.80;1.73;;;24.10;99.90;;;;;;5119640;28;20170;-81
2022/05/21 11:22:53;;;;;;;2.43;1.80;;;24.90;97.90;;;;;;5118777;28;20188;-82
2022/05/21 11:25:27;;;;;;;2.20;1.90;;;25.80;98.20;;;;;;5120787;28;20187;-81
2022/05/21 11:28:22;;;;;;;2.37;1.40;;;25.90;92.40;;;;;;5120779;28;20583;-81
2022/05/21 11:30:47;;;;;;;3.33;1.27;;;24.70;89.90;;;;;;5103778;28;20196;-81
2022/05/21 11:39:01;;;;;;;3.00;1.87;;;24.60;94.60;;;;;;5120512;28;20253;-81
2022/05/21 11:42:02;;;;;;;2.23;1.73;;;24.40;91.90;;;;;;5120002;28;20166;-81
2022/05/21 11:45:01;;;;;;;2.23;1.90;;;23.80;91.50;;;;;;5061397;28;20248;-81
2022/05/21 11:47:27;;;;;;;2.50;1.97;;;23.70;91.10;;;;;;5121396;28;20151;-82
2022/05/21 11:49:56;;;;;;;1.97;1.60;;;24.00;94.30;;;;;;5119477;28;20175;-81
2022/05/21 11:52:27;;;;;;;5.90;1.60;;;23.50;92.00;;;;;;5118500;28;20194;-84
2022/05/21 11:54:53;;;;;;;2.37;1.70;;;23.10;92.50;;;;;;5117984;28;20205;-83
2022/05/21 11:57:39;;;;;;;2.03;1.60;;;22.70;91.00;;;;;;5118397;28;20190;-83
2022/05/21 12:00:17;;;;;;;1.77;1.67;;;22.40;93.50;;;;;;5118831;28;20174;-83
2022/05/21 12:03:11;;;;;;;2.60;2.07;;;22.70;95.70;;;;;;5121044;28;20183;-82
2022/05/21 12:05:37;;;;;;;7.60;2.00;;;23.30;97.40;;;;;;5117543;28;20232;-80
2022/05/21 12:08:21;;;;;;;2.80;2.17;;;24.40;96.60;;;;;;5120728;28;20182;-81
2022/05/21 12:11:08;;;;;;;2.40;1.90;;;25.70;90.80;;;;;;5121355;28;20581;-83
2022/05/21 12:13:34;;;;;;;2.40;1.60;;;26.40;85.00;;;;;;5120916;28;20206;-80
2022/05/21 12:16:23;;;;;;;4.83;1.70;;;27.00;89.50;;;;;;5126335;28;20204;-81
2022/05/21 12:18:50;;;;;;;3.63;1.80;;;27.20;81.00;;;;;;5124404;28;20233;-81
2022/05/21 12:21:29;;;;;;;1.83;1.60;;;27.00;86.30;;;;;;5125025;28;20185;-82
2022/05/21 12:23:57;;;;;;;1.97;1.40;;;27.00;82.60;;;;;;5126903;28;20174;-82
2022/05/21 12:26:31;;;;;;;2.50;1.60;;;27.60;89.10;;;;;;5127518;27;20200;-83
2022/05/21 12:29:17;;;;;;;5.40;2.30;;;27.80;77.70;;;;;;5128844;28;20156;-82
2022/05/21 12:31:50;;;;;;;1.93;1.60;;;28.20;80.40;;;;;;5119478;28;20179;-82
2022/05/21 12:34:34;;;;;;;2.90;1.60;;;28.90;75.80;;;;;;5118224;28;20646;-81
2022/05/21 12:37:22;;;;;;;2.07;1.57;;;28.90;80.40;;;;;;5119846;28;20177;-78
2022/05/21 12:39:50;;;;;;;1.90;1.50;;;29.50;73.40;;;;;;5125005;27;20159;-78
2022/05/21 12:42:33;;;;;;;2.30;1.50;;;29.40;69.30;;;;;;5124212;28;20186;-77
2022/05/21 12:44:58;;;;;;;2.03;1.60;;;29.00;74.70;;;;;;5123017;28;20233;-78
2022/05/21 12:47:27;;;;;;;1.57;1.40;;;29.20;86.30;;;;;;5120690;28;20185;-79
2022/05/21 12:49:53;;;;;;;2.83;1.40;;;29.10;71.30;;;;;;5118258;28;20185;-78
2022/05/21 12:52:28;;;;;;;2.70;1.17;;;28.90;78.20;;;;;;5127372;28;20178;-80
2022/05/21 12:55:15;;;;;;;4.93;1.67;;;29.10;70.10;;;;;;5132838;28;20217;-80
2022/05/21 12:57:41;;;;;;;2.43;1.47;;;29.00;67.10;;;;;;5125800;28;20182;-80
2022/05/21 13:00:07;;;;;;;2.73;1.70;;;28.90;73.10;;;;;;5124517;28;20187;-79
2022/05/21 13:02:42;;;;;;;1.30;1.20;;;28.80;69.70;;;;;;5122454;28;20669;-78
2022/05/21 13:05:08;;;;;;;3.13;1.70;;;28.90;78.10;;;;;;5123212;28;20191;-83
2022/05/21 13:07:41;;;;;;;1.50;1.40;;;28.80;64.60;;;;;;5126043;28;20188;-82
2022/05/21 13:10:20;;;;;;;1.57;1.47;;;28.30;68.60;;;;;;5125528;28;20158;-78
2022/05/21 13:12:50;;;;;;;2.97;1.30;;;28.50;68.90;;;;;;5122159;28;20649;-79
2022/05/21 13:15:28;;;;;;;2.37;1.40;;;28.90;73.70;;;;;;5121336;28;20220;-80
2022/05/21 13:18:14;;;;;;;1.67;1.43;;;29.30;68.50;;;;;;5121602;28;20177;-80
2022/05/21 13:21:04;;;;;;;2.50;1.20;;;28.60;67.80;;;;;;5113855;28;20287;-80
2022/05/21 13:23:51;;;;;;;1.77;1.50;;;28.90;74.00;;;;;;5120024;28;20176;-79
2022/05/21 13:26:23;;;;;;;3.10;1.20;;;29.30;67.40;;;;;;5120503;28;20209;-80
2022/05/21 13:28:49;;;;;;;3.67;1.30;;;29.50;62.30;;;;;;5122179;28;20633;-80
2022/05/21 13:31:16;;;;;;;3.30;1.50;;;29.00;63.50;;;;;;5122320;28;20592;-80
2022/05/21 13:33:51;;;;;;;3.23;1.40;;;29.00;76.90;;;;;;5122190;28;20185;-79
2022/05/21 13:36:20;;;;;;;1.53;1.10;;;29.60;69.10;;;;;;5121119;28;20282;-79